Time;durP1;ratioP1;P1;durP2;ratioP2;P2;SDS_P1;SDS_P2;PMS_P1;PMS_P2;Temp;Humidity;BMP_temperature;BMP_pressure;BME280_temperature;BME280_humidity;BME280_pressure;Samples;Min_cycle;Max_cycle;Signal;HPM_P1;HPM_P2
2021/06/12 00:02:04;;;;;;;4.95;4.45;;;;;;;14.91;90.06;98938.94;1786497;80;21017;-71
2021/06/12 00:04:32;;;;;;;7.25;5.08;;;;;;;14.91;89.95;98933.23;1786468;80;21047;-71
2021/06/12 00:06:59;;;;;;;7.28;5.20;;;;;;;14.89;89.87;98939.52;1786593;80;20946;-71
2021/06/12 00:09:27;;;;;;;8.25;4.97;;;;;;;14.86;89.84;98939.71;1786825;80;21089;-71
2021/06/12 00:11:54;;;;;;;8.10;5.42;;;;;;;14.85;89.75;98932.80;1786380;80;20953;-69
2021/06/12 00:14:20;;;;;;;9.28;5.60;;;;;;;14.80;89.74;98933.10;1786630;79;21009;-69
2021/06/12 00:16:48;;;;;;;8.15;5.72;;;;;;;14.77;89.80;98929.41;1786466;80;20862;-70
2021/06/12 00:19:15;;;;;;;6.30;5.65;;;;;;;14.72;90.07;98924.47;1786566;80;20990;-70
2021/06/12 00:21:41;;;;;;;6.05;4.90;;;;;;;14.68;90.34;98924.30;1786539;80;21133;-70
2021/06/12 00:24:09;;;;;;;9.65;5.75;;;;;;;14.68;90.51;98923.47;1786346;80;20938;-69
2021/06/12 00:26:35;;;;;;;7.60;5.33;;;;;;;14.65;90.68;98908.80;1786499;80;21047;-69
2021/06/12 00:29:02;;;;;;;6.62;5.17;;;;;;;14.63;90.91;98913.77;1786532;80;20938;-70
2021/06/12 00:31:30;;;;;;;7.75;4.87;;;;;;;14.60;91.11;98914.80;1786466;80;20942;-71
2021/06/12 00:33:56;;;;;;;7.65;4.35;;;;;;;14.59;91.13;98914.94;1786722;80;21101;-70
2021/06/12 00:36:23;;;;;;;7.22;4.87;;;;;;;14.56;91.18;98922.52;1786548;80;20950;-70
2021/06/12 00:38:50;;;;;;;5.53;5.03;;;;;;;14.53;90.93;98926.64;1786445;80;20957;-70
2021/06/12 00:41:19;;;;;;;6.10;5.17;;;;;;;14.50;90.42;98922.07;1786403;80;20934;-69
2021/06/12 00:43:46;;;;;;;6.10;4.58;;;;;;;14.44;90.55;98922.84;1785951;80;20966;-69
2021/06/12 00:46:13;;;;;;;7.65;4.25;;;;;;;14.40;90.65;98925.28;1780897;80;21096;-70
2021/06/12 00:48:43;;;;;;;7.22;5.00;;;;;;;14.36;90.73;98927.72;1780998;79;21273;-70
2021/06/12 00:51:10;;;;;;;6.22;5.50;;;;;;;14.31;90.90;98926.34;1780672;80;20994;-70
2021/06/12 00:53:42;;;;;;;9.28;5.80;;;;;;;14.27;91.01;98926.16;1780597;80;20966;-69
2021/06/12 00:56:12;;;;;;;7.70;4.70;;;;;;;14.24;91.13;98930.27;1781124;80;21556;-70
2021/06/12 00:58:42;;;;;;;7.47;4.87;;;;;;;14.19;91.43;98926.64;1781089;80;21821;-69
2021/06/12 01:01:11;;;;;;;6.72;4.95;;;;;;;14.16;92.02;98920.33;1780582;80;20932;-70
2021/06/12 01:03:40;;;;;;;6.58;5.33;;;;;;;14.13;92.45;98918.75;1780683;80;20955;-70
2021/06/12 01:06:09;;;;;;;5.53;5.03;;;;;;;14.11;92.95;98914.08;1780681;80;20998;-70
2021/06/12 01:08:38;;;;;;;5.28;4.67;;;;;;;14.10;93.42;98911.09;1780936;80;20950;-70
2021/06/12 01:11:05;;;;;;;9.78;4.95;;;;;;;14.10;93.45;98918.10;1780680;80;21096;-71
2021/06/12 01:14:04;;;;;;;5.42;4.92;;;;;;;14.08;93.67;98915.58;1780833;80;20930;-71
2021/06/12 01:16:54;;;;;;;4.95;4.45;;;;;;;14.08;93.65;98912.97;1780624;80;20922;-70
2021/06/12 01:19:42;;;;;;;7.17;5.28;;;;;;;14.07;93.73;98914.38;1781094;80;21001;-71
2021/06/12 01:22:17;;;;;;;5.12;3.98;;;;;;;14.02;94.08;98908.12;1780743;80;20947;-71
2021/06/12 01:25:06;;;;;;;4.87;4.33;;;;;;;14.01;94.41;98903.83;1780167;80;21067;-70
2021/06/12 01:27:55;;;;;;;7.28;5.17;;;;;;;14.02;94.55;98902.05;1780647;79;20965;-69
2021/06/12 01:30:24;;;;;;;6.40;4.62;;;;;;;14.00;94.67;98908.69;1779361;80;20977;-70
2021/06/12 01:32:57;;;;;;;8.20;4.47;;;;;;;13.99;94.86;98909.63;1780809;80;20947;-70
2021/06/12 01:35:33;;;;;;;;;;;;;;;13.99;94.80;98923.16;1783542;80;20986;-70
2021/06/12 01:37:59;;;;;;;6.70;4.12;;;;;;;13.97;94.90;98919.84;1780862;80;21796;-70
2021/06/12 01:40:30;;;;;;;10.82;4.67;;;;;;;13.91;95.15;98918.91;1780545;80;20974;-71
2021/06/12 01:42:56;;;;;;;5.75;4.22;;;;;;;13.87;95.39;98930.02;1780777;80;20946;-71
2021/06/12 01:45:23;;;;;;;8.60;5.12;;;;;;;13.86;95.61;98929.66;1784026;80;21457;-70
2021/06/12 01:47:52;;;;;;;6.60;5.28;;;;;;;13.86;95.64;98936.19;1786619;80;20934;-70
2021/06/12 01:50:18;;;;;;;8.70;5.33;;;;;;;13.84;95.65;98926.30;1786925;80;21155;-70
2021/06/12 01:52:45;;;;;;;8.23;5.62;;;;;;;13.84;95.70;98932.83;1786539;80;21009;-71
2021/06/12 01:55:13;;;;;;;5.15;4.42;;;;;;;13.87;95.74;98935.72;1786658;80;20981;-71
2021/06/12 01:57:42;;;;;;;5.97;4.45;;;;;;;13.89;95.59;98937.77;1786621;80;20943;-71
2021/06/12 02:00:10;;;;;;;7.25;4.65;;;;;;;13.91;95.63;98934.13;1786863;80;20934;-71
2021/06/12 02:02:44;;;;;;;4.60;4.12;;;;;;;13.93;95.58;98927.50;1786606;80;21194;-71
2021/06/12 02:05:17;;;;;;;4.35;3.95;;;;;;;13.95;95.65;98936.09;1786500;80;20931;-70
2021/06/12 02:07:43;;;;;;;9.30;4.55;;;;;;;13.98;95.69;98938.05;1786405;80;21009;-70
2021/06/12 02:10:15;;;;;;;6.55;3.98;;;;;;;14.05;95.74;98934.55;1786219;80;20968;-70
2021/06/12 02:12:41;;;;;;;4.12;3.72;;;;;;;14.16;95.71;98926.87;1786766;80;21418;-71
2021/06/12 02:15:10;;;;;;;5.20;4.70;;;;;;;14.29;95.37;98938.67;1786618;80;21124;-70
2021/06/12 02:17:36;;;;;;;6.00;5.22;;;;;;;14.41;95.15;98940.04;1786589;80;20954;-70
2021/06/12 02:20:07;;;;;;;4.75;4.35;;;;;;;14.58;95.02;98935.03;1786533;79;21033;-71
2021/06/12 02:22:36;;;;;;;4.22;3.85;;;;;;;14.85;94.94;98932.80;1758926;80;21068;-71
2021/06/12 02:25:07;;;;;;;4.17;3.77;;;;;;;15.18;94.16;98937.55;1786944;80;20986;-69
2021/06/12 02:27:33;;;;;;;7.28;4.42;;;;;;;15.50;93.34;98944.84;1786515;80;21850;-71
2021/06/12 02:29:59;;;;;;;7.75;4.83;;;;;;;15.85;91.36;98942.37;1786839;80;20978;-71
2021/06/12 02:32:26;;;;;;;5.70;3.87;;;;;;;16.18;89.98;98948.79;1786817;80;21025;-69
2021/06/12 02:34:52;;;;;;;6.12;4.62;;;;;;;16.48;87.67;98950.47;1786611;80;21029;-70
2021/06/12 02:37:19;;;;;;;11.25;4.05;;;;;;;16.78;86.12;98943.93;1786635;80;20962;-70
2021/06/12 02:39:45;;;;;;;5.92;4.15;;;;;;;17.08;84.04;98949.95;1786921;80;21094;-70
2021/06/12 02:42:11;;;;;;;4.37;4.00;;;;;;;17.27;81.78;98939.70;1786449;79;21100;-70
2021/06/12 02:44:38;;;;;;;4.87;3.92;;;;;;;17.57;80.20;98954.90;1785611;80;21237;-70
2021/06/12 02:47:07;;;;;;;5.22;4.35;;;;;;;17.83;78.55;98946.28;1780830;80;20978;-69
2021/06/12 02:49:36;;;;;;;4.53;3.80;;;;;;;18.11;76.95;98945.75;1781009;80;20990;-70
2021/06/12 02:52:06;;;;;;;5.30;3.85;;;;;;;18.41;76.37;98947.68;1780771;80;21146;-70
2021/06/12 02:54:33;;;;;;;4.35;3.85;;;;;;;18.77;74.47;98934.64;1750690;80;21084;-70
2021/06/12 02:57:00;;;;;;;8.00;4.20;;;;;;;19.08;73.56;98938.16;1780982;80;21399;-71
2021/06/12 02:59:26;;;;;;;7.53;3.83;;;;;;;19.47;72.28;98943.61;1780796;80;21466;-70
2021/06/12 03:01:52;;;;;;;5.15;4.65;;;;;;;19.79;70.46;98945.62;1780797;80;21005;-71
2021/06/12 03:04:19;;;;;;;6.67;4.30;;;;;;;20.07;68.89;98936.61;1780656;80;21128;-71
2021/06/12 03:06:49;;;;;;;7.08;4.00;;;;;;;20.34;68.03;98946.03;1780913;80;21414;-71
2021/06/12 03:09:19;;;;;;;4.78;3.87;;;;;;;20.54;66.51;98955.67;1780763;80;21014;-71
2021/06/12 03:11:47;;;;;;;5.00;3.55;;;;;;;20.57;65.85;98951.44;1780162;80;21021;-71
2021/06/12 03:14:13;;;;;;;4.67;3.85;;;;;;;20.44;65.66;98951.34;1781031;80;21025;-71
2021/06/12 03:16:42;;;;;;;5.00;4.17;;;;;;;20.27;65.58;98954.14;1780686;80;21111;-71
2021/06/12 03:19:10;;;;;;;4.00;3.70;;;;;;;20.10;66.03;98953.02;1780942;80;20934;-71
2021/06/12 03:21:36;;;;;;;3.95;3.65;;;;;;;20.19;66.56;98953.50;1780645;79;21005;-71
2021/06/12 03:24:05;;;;;;;5.10;4.35;;;;;;;20.53;66.01;98956.64;1780737;80;20931;-72
2021/06/12 03:34:32;;;;;;;4.53;4.08;;;;;;;22.31;60.55;98956.16;1780853;80;21894;-73
2021/06/12 03:37:00;;;;;;;4.42;3.77;;;;;;;22.87;58.57;98955.02;1780758;80;20930;-73
2021/06/12 03:39:26;;;;;;;4.90;4.08;;;;;;;23.21;57.68;98949.30;1750832;80;21454;-73
2021/06/12 03:41:53;;;;;;;3.75;3.45;;;;;;;23.64;56.47;98952.88;1780770;80;21103;-72
2021/06/12 03:44:20;;;;;;;4.92;3.62;;;;;;;24.06;54.97;98951.55;1780719;80;21137;-72
2021/06/12 03:46:48;;;;;;;3.92;3.47;;;;;;;24.33;53.88;98955.31;1785729;80;21009;-72
2021/06/12 03:49:14;;;;;;;5.95;3.40;;;;;;;24.58;53.26;98965.98;1786537;80;21025;-72
2021/06/12 03:51:40;;;;;;;3.98;3.60;;;;;;;24.88;52.19;98967.14;1786836;80;20934;-71
2021/06/12 03:54:08;;;;;;;3.87;3.45;;;;;;;25.17;51.30;98959.52;1786579;80;20962;-72
2021/06/12 03:56:37;;;;;;;4.22;3.83;;;;;;;25.50;50.39;98968.25;1758538;80;21846;-72
2021/06/12 03:59:05;;;;;;;8.83;3.42;;;;;;;25.86;49.55;98972.64;1758005;80;20973;-71
2021/06/12 04:01:32;;;;;;;4.17;3.62;;;;;;;26.08;48.82;98979.87;1786459;80;20989;-72
2021/06/12 04:03:59;;;;;;;5.90;3.70;;;;;;;26.36;48.04;98980.27;1786480;80;20973;-71
2021/06/12 04:06:25;;;;;;;4.22;3.40;;;;;;;26.60;47.33;98979.25;1786852;80;20954;-71
2021/06/12 04:08:51;;;;;;;5.20;4.70;;;;;;;26.93;46.92;98977.69;1786649;80;21180;-71
2021/06/12 04:11:18;;;;;;;5.12;4.62;;;;;;;27.25;45.42;98981.41;1786452;80;20966;-70
2021/06/12 04:13:44;;;;;;;7.70;4.58;;;;;;;27.45;44.64;98985.72;1786706;80;21501;-70
2021/06/12 04:16:11;;;;;;;3.45;3.25;;;;;;;27.55;44.45;98982.28;1786448;80;20926;-70
2021/06/12 04:18:38;;;;;;;5.37;3.80;;;;;;;27.77;44.09;98980.57;1786748;80;21374;-70
2021/06/12 04:21:05;;;;;;;4.17;3.80;;;;;;;28.08;43.37;98980.34;1786434;80;21134;-70
2021/06/12 04:23:34;;;;;;;6.00;4.10;;;;;;;28.35;42.95;98988.20;1786422;80;20974;-71
2021/06/12 04:26:00;;;;;;;10.25;4.37;;;;;;;28.63;42.48;98987.77;1786835;80;21407;-71
2021/06/12 04:28:27;;;;;;;5.60;4.70;;;;;;;28.92;42.08;98994.87;1786510;80;21079;-71
2021/06/12 04:30:53;;;;;;;6.28;5.00;;;;;;;29.16;41.31;98994.15;1786445;80;21038;-71
2021/06/12 04:33:20;;;;;;;6.10;3.85;;;;;;;29.35;41.39;98991.62;1786499;80;21204;-71
2021/06/12 04:35:46;;;;;;;5.15;4.25;;;;;;;29.68;40.39;98993.70;1786472;79;20954;-71
2021/06/12 04:38:13;;;;;;;3.75;3.35;;;;;;;29.91;40.02;98988.88;1786418;80;21013;-71
2021/06/12 04:40:39;;;;;;;4.00;3.52;;;;;;;30.10;39.24;98987.34;1786667;80;20946;-71
2021/06/12 04:43:07;;;;;;;4.00;3.60;;;;;;;30.16;38.66;98989.23;1786526;80;21025;-71
2021/06/12 04:45:34;;;;;;;3.55;3.00;;;;;;;30.14;37.82;98996.14;1785193;80;21411;-71
2021/06/12 04:48:02;;;;;;;4.15;3.85;;;;;;;30.03;37.33;99003.39;1780643;80;21376;-71
2021/06/12 04:50:30;;;;;;;3.70;3.37;;;;;;;29.83;37.66;99003.78;1780653;80;20978;-71
2021/06/12 04:52:57;;;;;;;3.92;3.62;;;;;;;29.62;38.14;99006.54;1780668;80;21009;-70
2021/06/12 04:55:23;;;;;;;4.47;3.27;;;;;;;29.48;38.70;99003.78;1780884;80;21041;-69
2021/06/12 04:57:49;;;;;;;3.80;3.20;;;;;;;29.48;38.35;99001.11;1780701;80;21355;-70
2021/06/12 05:00:17;;;;;;;3.62;3.30;;;;;;;29.45;37.95;99003.34;1780836;80;21041;-71
2021/06/12 05:02:44;;;;;;;4.37;3.77;;;;;;;29.31;38.11;98994.87;1780657;80;20974;-70
2021/06/12 05:05:11;;;;;;;4.00;3.40;;;;;;;29.18;38.25;99000.94;1780698;80;20954;-70
2021/06/12 05:07:38;;;;;;;5.37;3.10;;;;;;;29.05;38.36;99002.18;1780623;80;20981;-71
2021/06/12 05:10:06;;;;;;;4.08;3.30;;;;;;;29.02;38.59;99007.91;1780574;80;21109;-71
2021/06/12 05:12:33;;;;;;;4.65;3.60;;;;;;;29.13;38.07;99010.09;1780731;80;21049;-70
2021/06/12 05:15:01;;;;;;;3.35;3.05;;;;;;;29.12;38.42;99004.41;1780967;80;20943;-70
2021/06/12 05:17:30;;;;;;;4.70;2.95;;;;;;;29.12;37.86;99008.43;1780704;80;20985;-71
2021/06/12 05:19:57;;;;;;;6.55;3.37;;;;;;;29.26;37.80;98998.64;1780748;80;20930;-71
2021/06/12 05:22:26;;;;;;;5.20;3.40;;;;;;;29.49;37.28;99003.27;1780578;80;21117;-70
2021/06/12 05:24:53;;;;;;;3.02;2.77;;;;;;;29.60;36.88;99000.55;1780960;80;20942;-71
2021/06/12 05:27:21;;;;;;;5.70;2.67;;;;;;;29.69;36.56;99006.08;1780862;79;21031;-70
2021/06/12 05:29:47;;;;;;;6.33;2.70;;;;;;;29.77;36.22;99004.59;1780859;80;20946;-72
2021/06/12 05:32:15;;;;;;;3.45;3.15;;;;;;;29.76;35.61;99002.94;1780911;80;21445;-70
2021/06/12 05:34:42;;;;;;;4.87;3.27;;;;;;;29.62;36.33;98999.33;1780854;80;21209;-72
2021/06/12 05:37:09;;;;;;;3.55;3.22;;;;;;;29.61;36.68;98996.84;1780655;80;20974;-71
2021/06/12 05:39:36;;;;;;;3.00;2.72;;;;;;;29.73;36.53;99001.98;1780905;80;20933;-70
2021/06/12 05:42:04;;;;;;;3.55;3.25;;;;;;;29.78;36.15;99002.20;1780736;80;21025;-70
2021/06/12 05:44:30;;;;;;;3.30;3.00;;;;;;;29.86;36.01;99010.09;1780754;80;20941;-69
2021/06/12 05:46:57;;;;;;;3.42;3.12;;;;;;;29.76;36.18;99003.77;1780624;79;21093;-71
2021/06/12 05:49:25;;;;;;;4.37;3.45;;;;;;;29.76;36.38;98996.23;1780844;80;21516;-70
2021/06/12 05:51:51;;;;;;;8.40;4.00;;;;;;;29.90;36.70;99001.97;1780667;80;21045;-71
2021/06/12 05:54:17;;;;;;;5.78;3.70;;;;;;;30.07;36.66;98988.56;1780814;80;20951;-71
2021/06/12 05:56:44;;;;;;;9.00;3.87;;;;;;;30.09;36.44;98994.56;1780749;80;20994;-71
2021/06/12 05:59:10;;;;;;;5.90;3.80;;;;;;;29.98;36.50;98990.27;1780733;80;21093;-71
2021/06/12 06:01:37;;;;;;;11.55;5.28;;;;;;;29.82;36.49;98994.08;1780716;80;20974;-71
2021/06/12 06:04:05;;;;;;;3.58;3.27;;;;;;;29.66;36.87;98987.70;1781024;80;21473;-70
2021/06/12 06:06:31;;;;;;;3.40;3.10;;;;;;;29.50;36.76;98996.06;1780726;80;21001;-70
2021/06/12 06:08:58;;;;;;;5.22;3.10;;;;;;;29.29;36.63;98998.25;1781027;80;21375;-72
2021/06/12 06:11:25;;;;;;;10.68;3.42;;;;;;;29.04;36.40;98998.67;1780749;80;23131;-71
2021/06/12 06:13:51;;;;;;;5.15;2.83;;;;;;;28.78;36.60;98987.69;1780682;80;20935;-71
2021/06/12 06:16:18;;;;;;;4.28;3.25;;;;;;;28.48;37.07;98991.01;1780760;80;20938;-72
2021/06/12 06:18:44;;;;;;;4.00;3.20;;;;;;;28.29;38.05;98992.45;1780981;80;20985;-70
2021/06/12 06:21:12;;;;;;;4.90;3.10;;;;;;;28.28;38.18;98991.30;1780728;79;20910;-71
2021/06/12 06:23:38;;;;;;;7.28;3.00;;;;;;;28.26;38.59;98995.49;1780695;80;21142;-71
2021/06/12 06:26:06;;;;;;;7.37;4.08;;;;;;;28.25;38.80;98990.33;1780751;80;21052;-71
2021/06/12 06:28:33;;;;;;;3.20;2.80;;;;;;;28.09;38.99;98992.18;1780837;80;21009;-72
2021/06/12 06:30:59;;;;;;;10.48;3.42;;;;;;;27.94;39.66;98995.39;1780675;80;20958;-71
2021/06/12 06:33:26;;;;;;;10.32;5.42;;;;;;;27.88;40.24;98997.45;1780737;80;21037;-71
2021/06/12 06:35:53;;;;;;;7.75;5.53;;;;;;;27.73;40.89;98991.30;1780704;80;21286;-71
2021/06/12 06:38:20;;;;;;;4.70;3.22;;;;;;;27.46;41.38;98988.71;1781005;80;20958;-71
2021/06/12 06:40:47;;;;;;;5.20;3.50;;;;;;;27.12;41.55;98991.06;1780737;80;20986;-70
2021/06/12 06:43:14;;;;;;;5.17;3.22;;;;;;;26.93;42.03;98990.52;1780640;80;20990;-71
2021/06/12 06:45:41;;;;;;;6.12;4.00;;;;;;;26.84;42.58;98992.92;1780676;80;20970;-71
2021/06/12 06:48:09;;;;;;;4.30;3.08;;;;;;;26.64;43.34;98993.90;1786811;80;21787;-71
2021/06/12 06:50:36;;;;;;;3.98;3.62;;;;;;;26.39;43.75;98991.05;1786536;80;21021;-70
2021/06/12 06:53:02;;;;;;;7.28;3.90;;;;;;;26.11;44.52;98997.36;1786773;80;20922;-69
2021/06/12 06:55:28;;;;;;;6.58;3.67;;;;;;;25.91;45.07;99004.94;1786607;80;21074;-70
2021/06/12 06:57:55;;;;;;;4.37;3.85;;;;;;;25.77;45.30;98999.51;1786598;80;21037;-70
2021/06/12 07:00:26;;;;;;;9.25;4.42;;;;;;;25.64;45.89;98992.87;1786637;79;21402;-71
2021/06/12 07:02:53;;;;;;;4.45;3.60;;;;;;;25.50;46.74;99005.53;1786791;80;20942;-69
2021/06/12 07:05:20;;;;;;;3.83;3.50;;;;;;;25.33;45.73;99000.73;1786448;80;20946;-71
2021/06/12 07:07:47;;;;;;;7.10;3.42;;;;;;;25.18;46.18;99010.91;1786467;80;20974;-71
2021/06/12 07:10:15;;;;;;;4.30;3.52;;;;;;;25.06;46.11;98999.76;1786708;80;21025;-71
2021/06/12 07:12:42;;;;;;;5.20;3.58;;;;;;;24.98;46.35;98999.78;1786575;80;21127;-70
2021/06/12 07:15:11;;;;;;;5.58;3.62;;;;;;;24.89;46.70;99000.73;1786556;80;21551;-71
2021/06/12 07:17:38;;;;;;;4.17;3.77;;;;;;;24.78;46.70;98997.88;1786544;80;20930;-71
2021/06/12 07:20:06;;;;;;;5.35;3.10;;;;;;;24.74;47.25;99000.56;1786624;80;20978;-71
2021/06/12 07:22:32;;;;;;;4.20;3.72;;;;;;;24.66;47.32;98998.72;1786508;80;21008;-70
2021/06/12 07:25:00;;;;;;;4.08;3.67;;;;;;;24.59;48.01;98996.37;1786606;80;20930;-70
2021/06/12 07:27:27;;;;;;;10.58;3.98;;;;;;;24.53;48.20;98997.05;1786557;80;20958;-71
2021/06/12 07:29:53;;;;;;;5.35;4.10;;;;;;;24.49;47.55;98992.21;1786974;80;20950;-70
2021/06/12 07:32:19;;;;;;;4.12;3.70;;;;;;;24.42;47.29;98988.53;1786539;80;20938;-71
2021/06/12 07:34:46;;;;;;;4.00;3.47;;;;;;;24.36;47.63;98986.88;1786473;80;20974;-70
2021/06/12 07:37:12;;;;;;;5.40;3.85;;;;;;;24.30;47.38;98985.36;1786798;80;21095;-71
2021/06/12 07:39:41;;;;;;;4.97;3.62;;;;;;;24.26;47.88;98993.31;1786475;80;20993;-70
2021/06/12 07:42:08;;;;;;;4.65;3.75;;;;;;;24.29;48.12;98991.67;1786512;80;20965;-71
2021/06/12 07:44:34;;;;;;;4.15;3.75;;;;;;;24.34;48.25;98986.70;1786808;80;20989;-71
2021/06/12 07:47:01;;;;;;;7.17;4.03;;;;;;;24.40;48.01;98988.69;1783868;80;20979;-70
2021/06/12 07:49:27;;;;;;;3.98;3.67;;;;;;;24.46;48.92;98985.39;1780737;80;21286;-71
2021/06/12 07:51:54;;;;;;;4.37;3.95;;;;;;;24.53;48.19;98990.40;1780647;80;21022;-70
2021/06/12 07:54:20;;;;;;;3.98;3.60;;;;;;;24.54;48.28;98983.25;1780940;79;20935;-70
2021/06/12 07:56:47;;;;;;;4.92;3.33;;;;;;;24.51;47.74;98980.92;1780805;80;21029;-70
2021/06/12 07:59:13;;;;;;;4.03;3.45;;;;;;;24.45;48.15;98981.06;1780645;80;21036;-70
2021/06/12 08:01:40;;;;;;;3.58;3.27;;;;;;;24.48;47.76;98986.56;1780720;80;21141;-70
2021/06/12 08:04:06;;;;;;;3.70;3.40;;;;;;;24.49;47.55;98990.88;1780613;79;21461;-70
2021/06/12 08:06:32;;;;;;;5.90;4.37;;;;;;;24.50;47.13;98980.09;1780885;80;21029;-71
2021/06/12 08:09:00;;;;;;;5.60;4.28;;;;;;;24.58;48.02;98981.94;1780881;79;21445;-69
2021/06/12 08:11:26;;;;;;;5.55;4.80;;;;;;;24.68;48.06;98982.10;1780910;80;21033;-70
2021/06/12 08:13:53;;;;;;;5.75;4.42;;;;;;;24.80;47.55;98991.07;1780658;79;21050;-70
2021/06/12 08:16:19;;;;;;;9.35;4.45;;;;;;;24.86;46.23;98984.59;1780716;80;20914;-70
2021/06/12 08:18:46;;;;;;;6.42;4.08;;;;;;;24.86;46.65;98978.45;1780698;80;20982;-71
2021/06/12 08:21:12;;;;;;;3.67;3.37;;;;;;;24.93;46.37;98980.78;1780964;80;21394;-70
2021/06/12 08:23:39;;;;;;;5.50;3.33;;;;;;;24.98;45.61;98983.28;1780763;80;20966;-70
2021/06/12 08:26:05;;;;;;;5.72;3.70;;;;;;;25.00;46.01;98981.79;1780953;80;21170;-70
2021/06/12 08:28:31;;;;;;;4.37;3.67;;;;;;;25.03;46.23;98971.66;1780626;80;21418;-71
2021/06/12 08:30:58;;;;;;;5.45;3.55;;;;;;;25.16;46.38;98975.65;1780794;80;20977;-71
2021/06/12 08:33:25;;;;;;;9.60;5.45;;;;;;;25.20;45.94;98979.61;1780631;80;20986;-72
2021/06/12 08:35:53;;;;;;;6.10;3.77;;;;;;;25.13;45.89;98982.63;1780721;80;21153;-71
2021/06/12 08:38:20;;;;;;;3.80;3.33;;;;;;;25.04;45.19;98979.13;1780757;80;21826;-70
2021/06/12 08:40:48;;;;;;;3.20;2.98;;;;;;;25.04;45.64;98976.47;1780794;79;20931;-70
2021/06/12 08:43:27;;;;;;;9.70;4.10;;;;;;;25.08;44.92;98983.12;1780690;80;20977;-71
2021/06/12 08:45:57;;;;;;;5.33;3.50;;;;;;;25.10;45.10;98982.97;1780957;80;21010;-71
2021/06/12 08:48:25;;;;;;;3.55;3.20;;;;;;;25.18;43.95;98981.64;1780603;80;20994;-70
2021/06/12 08:50:53;;;;;;;3.60;3.30;;;;;;;25.29;43.44;98974.63;1780567;80;21975;-70
2021/06/12 08:53:20;;;;;;;3.75;3.45;;;;;;;25.43;42.99;98970.42;1780534;80;20970;-71
2021/06/12 08:55:46;;;;;;;11.65;3.83;;;;;;;25.61;42.58;98969.20;1780942;80;20962;-70
2021/06/12 08:58:13;;;;;;;5.85;3.98;;;;;;;25.83;42.83;98972.16;1780699;80;21025;-71
2021/06/12 09:00:41;;;;;;;3.45;3.15;;;;;;;26.03;42.69;98970.73;1781129;80;20974;-71
2021/06/12 09:03:22;;;;;;;4.10;3.70;;;;;;;26.23;41.40;98971.13;1780745;80;21133;-72
2021/06/12 09:05:51;;;;;;;3.55;3.25;;;;;;;26.32;40.91;98973.63;1780537;80;20918;-71
2021/06/12 09:08:27;;;;;;;4.42;3.98;;;;;;;26.43;40.27;98963.04;1780853;80;20977;-70
2021/06/12 09:11:11;;;;;;;9.45;3.90;;;;;;;26.55;40.28;98970.98;1780655;80;21021;-70
2021/06/12 09:13:44;;;;;;;5.80;3.70;;;;;;;26.51;41.11;98964.33;1780785;80;20954;-71
2021/06/12 09:16:39;;;;;;;5.33;4.00;;;;;;;26.27;41.93;98961.28;1780867;80;21788;-70
2021/06/12 09:19:15;;;;;;;4.47;3.50;;;;;;;26.13;42.29;98958.04;1780622;80;20954;-71
2021/06/12 09:21:45;;;;;;;5.95;3.75;;;;;;;26.03;42.94;98962.74;1780779;80;21570;-71
2021/06/12 09:24:26;;;;;;;3.95;3.65;;;;;;;26.00;42.71;98957.25;1780799;80;21438;-71
2021/06/12 09:27:02;;;;;;;3.83;3.52;;;;;;;26.02;42.59;98954.41;1780798;80;21398;-70
2021/06/12 09:29:40;;;;;;;4.60;3.40;;;;;;;26.16;42.15;98954.20;1780857;80;21161;-71
2021/06/12 09:32:14;;;;;;;3.37;3.15;;;;;;;26.36;41.67;98949.61;1780690;80;20950;-71
2021/06/12 09:34:42;;;;;;;4.37;2.98;;;;;;;26.56;41.13;98943.80;1780837;80;21426;-70
2021/06/12 09:37:12;;;;;;;6.95;3.37;;;;;;;26.80;40.48;98940.08;1781160;80;20961;-72
2021/06/12 09:39:40;;;;;;;3.30;3.10;;;;;;;27.00;39.75;98933.27;1780814;80;20965;-70
2021/06/12 09:42:09;;;;;;;3.75;3.33;;;;;;;27.14;38.97;98935.66;1780856;80;21429;-71
2021/06/12 09:44:39;;;;;;;3.70;3.40;;;;;;;27.21;39.25;98930.72;1780676;80;20981;-70
2021/06/12 09:47:22;;;;;;;6.45;3.12;;;;;;;27.26;38.87;98931.52;1782057;80;21045;-69
2021/06/12 09:49:48;;;;;;;3.70;3.40;;;;;;;27.26;38.43;98931.01;1786709;80;21414;-71
2021/06/12 09:52:17;;;;;;;4.10;3.45;;;;;;;27.22;38.35;98931.55;1786670;80;20993;-70
2021/06/12 09:54:47;;;;;;;4.42;4.00;;;;;;;27.19;38.59;98931.41;1786533;80;21109;-71
2021/06/12 09:57:17;;;;;;;4.40;3.67;;;;;;;27.16;38.27;98933.63;1786849;80;21477;-72
2021/06/12 09:59:55;;;;;;;4.70;3.77;;;;;;;27.06;38.93;98933.88;1786733;80;21501;-73
2021/06/12 10:02:41;;;;;;;4.83;3.60;;;;;;;26.96;39.02;98931.99;1786843;80;20946;-70
2021/06/12 10:05:11;;;;;;;9.15;4.25;;;;;;;26.83;40.34;98933.89;1786828;80;20925;-70
2021/06/12 10:07:37;;;;;;;4.78;3.50;;;;;;;26.75;40.61;98931.31;1786955;80;21113;-70
2021/06/12 10:10:08;;;;;;;19.82;5.72;;;;;;;26.62;41.62;98926.56;1786410;79;21069;-68
2021/06/12 10:12:35;;;;;;;4.75;4.35;;;;;;;26.42;45.28;98938.71;1786732;80;20974;-69
2021/06/12 10:15:03;;;;;;;6.78;4.22;;;;;;;26.23;47.18;98950.63;1786508;80;20986;-70
2021/06/12 10:17:29;;;;;;;6.45;3.52;;;;;;;25.89;47.95;98958.16;1786779;80;20930;-70
2021/06/12 10:19:57;;;;;;;5.70;4.35;;;;;;;25.59;48.79;98960.55;1786536;80;21141;-71
2021/06/12 10:22:23;;;;;;;4.03;3.55;;;;;;;25.36;51.15;98957.81;1786504;80;21005;-70
2021/06/12 10:24:50;;;;;;;5.17;4.25;;;;;;;25.24;50.74;98959.65;1786735;80;20954;-71
2021/06/12 10:27:18;;;;;;;4.12;3.30;;;;;;;25.15;50.41;98962.02;1786499;80;20990;-71
2021/06/12 10:29:46;;;;;;;5.42;3.42;;;;;;;25.01;49.92;98964.33;1786614;80;20962;-71
2021/06/12 10:32:16;;;;;;;3.80;2.80;;;;;;;24.92;49.03;98960.50;1786697;80;21789;-71
2021/06/12 10:34:42;;;;;;;5.08;3.27;;;;;;;24.81;48.48;98962.14;1786555;80;20958;-71
2021/06/12 10:37:12;;;;;;;3.45;3.15;;;;;;;24.76;49.43;98968.48;1786472;80;20933;-71
2021/06/12 10:39:41;;;;;;;4.67;3.27;;;;;;;24.75;49.08;98962.83;1786603;80;21445;-70
2021/06/12 10:42:23;;;;;;;4.72;3.50;;;;;;;24.65;50.04;98967.80;1786930;80;21005;-71
2021/06/12 10:44:54;;;;;;;3.75;3.15;;;;;;;24.59;50.89;98969.78;1786721;80;21151;-72
2021/06/12 10:47:41;;;;;;;4.35;3.30;;;;;;;24.59;51.26;98963.13;1785699;80;21594;-71
2021/06/12 10:50:33;;;;;;;3.60;3.30;;;;;;;24.60;50.77;98973.27;1780676;79;21490;-71
2021/06/12 10:53:20;;;;;;;4.12;3.37;;;;;;;24.57;51.52;98965.16;1780714;80;20946;-70
2021/06/12 10:55:51;;;;;;;7.78;3.87;;;;;;;24.59;52.32;98968.95;1780357;80;21026;-70
2021/06/12 10:58:40;;;;;;;9.78;3.83;;;;;;;24.70;53.02;98973.46;1780941;80;21164;-71
2021/06/12 11:01:15;;;;;;;5.33;4.08;;;;;;;24.82;53.12;98971.79;1780722;80;20997;-70
2021/06/12 11:04:37;;;;;;;14.05;3.92;;;;;;;24.98;53.88;98972.64;1780792;79;20926;-71
2021/06/12 11:06:50;;;;;;;17.87;4.00;;;;;;;25.11;54.02;98969.49;1769606;80;21402;-71
2021/06/12 11:09:34;;;;;;;11.65;4.17;;;;;;;25.11;52.65;98974.81;1780834;80;21021;-71
2021/06/12 11:12:19;;;;;;;13.08;3.25;;;;;;;25.03;52.22;98981.46;1780701;80;21140;-71
2021/06/12 11:15:01;;;;;;;8.13;3.65;;;;;;;24.96;52.63;98978.66;1780425;80;21151;-70
2021/06/12 11:17:28;;;;;;;19.23;4.58;;;;;;;24.91;52.79;98979.62;1780236;79;20938;-71
2021/06/12 11:20:00;;;;;;;5.78;3.92;;;;;;;24.83;52.58;98978.27;1780742;80;20974;-70
2021/06/12 11:22:35;;;;;;;5.90;5.12;;;;;;;24.69;52.26;98969.64;1781019;80;20962;-72
2021/06/12 11:25:13;;;;;;;8.35;4.90;;;;;;;24.48;52.85;98963.47;1780707;80;21831;-70
2021/06/12 11:27:48;;;;;;;4.80;3.33;;;;;;;24.29;52.88;98951.31;1780798;80;20918;-71
2021/06/12 11:30:23;;;;;;;4.50;4.10;;;;;;;24.12;52.44;98956.72;1780655;80;20977;-71
2021/06/12 11:33:01;;;;;;;6.22;4.03;;;;;;;23.85;52.71;98954.63;1780772;79;21426;-71
2021/06/12 11:35:49;;;;;;;7.12;4.42;;;;;;;23.59;53.17;98950.70;1780792;80;20962;-70
2021/06/12 11:38:33;;;;;;;4.72;4.08;;;;;;;23.36;53.53;98949.08;1781042;80;21060;-71
2021/06/12 11:41:10;;;;;;;12.28;5.00;;;;;;;23.23;53.89;98944.67;1780803;80;21389;-72
2021/06/12 11:43:45;;;;;;;17.48;5.30;;;;;;;23.10;54.17;98941.61;1780736;80;20974;-71
2021/06/12 11:46:14;;;;;;;5.60;3.40;;;;;;;23.01;54.51;98943.85;1780638;80;20934;-70
2021/06/12 11:48:44;;;;;;;5.17;3.08;;;;;;;22.85;54.56;98941.92;1784035;80;20930;-70
2021/06/12 11:51:25;;;;;;;5.30;2.80;;;;;;;22.72;55.43;98945.93;1786543;79;21128;-71
2021/06/12 11:54:14;;;;;;;3.75;2.90;;;;;;;22.60;55.89;98938.20;1786882;80;20982;-70